Time;durP1;ratioP1;P1;durP2;ratioP2;P2;SDS_P1;SDS_P2;PMS_P1;PMS_P2;Temp;Humidity;BMP_temperature;BMP_pressure;BME280_temperature;BME280_humidity;BME280_pressure;Samples;Min_cycle;Max_cycle;Signal;HPM_P1;HPM_P2
2021/07/05 00:01:49;;;;;;;;;;;;;;;17.71;70.20;98981.34;5073851;28;822;-63
2021/07/05 00:04:15;;;;;;;;;;;;;;;17.68;70.16;98978.72;5073803;28;853;-64
2021/07/05 00:06:42;;;;;;;;;;;;;;;17.66;70.47;98984.00;5073777;28;861;-64
2021/07/05 00:09:08;;;;;;;;;;;;;;;17.74;70.10;98988.00;5073739;28;838;-64
2021/07/05 00:11:35;;;;;;;;;;;;;;;17.68;70.33;98990.66;5073666;28;830;-64
2021/07/05 00:14:02;;;;;;;;;;;;;;;17.58;70.66;98986.38;5073965;28;957;-63
2021/07/05 00:16:29;;;;;;;;;;;;;;;17.58;71.08;98977.19;5073636;28;882;-63
2021/07/05 00:18:56;;;;;;;;;;;;;;;17.58;71.01;98983.56;5072933;28;1878;-63
2021/07/05 00:21:22;;;;;;;;;;;;;;;17.54;71.12;98983.72;5055194;28;1242;-63
2021/07/05 00:23:48;;;;;;;;;;;;;;;17.54;71.35;98974.56;5073279;28;818;-64
2021/07/05 00:26:15;;;;;;;;;;;;;;;17.47;71.56;98977.69;5073309;28;842;-64
2021/07/05 00:28:42;;;;;;;;;;;;;;;17.41;71.79;98976.75;5055376;28;1369;-63
2021/07/05 00:31:09;;;;;;;;;;;;;;;17.45;71.65;98974.59;5073217;28;967;-63
2021/07/05 00:33:36;;;;;;;;;;;;;;;17.40;71.80;98978.78;5073240;28;826;-64
2021/07/05 00:36:03;;;;;;;;;;;;;;;17.34;72.09;98983.47;5055143;28;1263;-64
2021/07/05 00:38:29;;;;;;;;;;;;;;;17.32;72.26;98981.13;5072977;28;1909;-64
2021/07/05 00:40:56;;;;;;;;;;;;;;;17.29;72.31;98982.06;5073211;28;900;-65
2021/07/05 00:43:22;;;;;;;;;;;;;;;17.22;72.82;98982.41;5073161;28;834;-64
2021/07/05 00:45:49;;;;;;;;;;;;;;;17.20;72.66;98986.88;5072936;28;822;-63
2021/07/05 00:48:16;;;;;;;;;;;;;;;17.16;73.10;98984.28;5072979;28;846;-64
2021/07/05 00:50:42;;;;;;;;;;;;;;;17.20;72.98;98982.09;5072901;28;858;-64
2021/07/05 00:53:10;;;;;;;;;;;;;;;17.35;72.79;98987.81;5072692;28;822;-64
2021/07/05 00:55:36;;;;;;;;;;;;;;;17.36;73.17;98989.34;5072739;28;795;-63
2021/07/05 00:58:03;;;;;;;;;;;;;;;17.49;72.84;98980.78;5072643;28;1894;-63
2021/07/05 01:00:29;;;;;;;;;;;;;;;17.53;72.68;98975.81;5072729;28;834;-63
2021/07/05 01:02:56;;;;;;;;;;;;;;;17.62;72.24;98975.00;5072492;28;907;-63
2021/07/05 01:05:24;;;;;;;;;;;;;;;17.65;72.02;98974.84;5054775;28;1542;-63
2021/07/05 01:07:51;;;;;;;;;;;;;;;17.68;71.73;98981.50;5072576;28;815;-63
2021/07/05 01:10:19;;;;;;;;;;;;;;;17.70;71.45;98979.00;5072514;28;814;-63
2021/07/05 01:12:46;;;;;;;;;;;;;;;17.79;70.98;98984.56;5072247;28;891;-63
2021/07/05 01:15:14;;;;;;;;;;;;;;;17.84;70.32;98981.16;5072423;28;870;-63
2021/07/05 01:17:41;;;;;;;;;;;;;;;17.83;70.32;98987.22;5072296;28;1886;-63
2021/07/05 01:20:08;;;;;;;;;;;;;;;17.75;70.61;98981.16;5072071;28;1225;-63
2021/07/05 01:22:35;;;;;;;;;;;;;;;17.63;71.04;98979.34;5072153;28;882;-63
2021/07/05 01:25:02;;;;;;;;;;;;;;;17.46;71.53;98976.91;5072179;28;869;-63
2021/07/05 01:27:27;;;;;;;;;;;;;;;17.32;72.20;98977.56;5072164;28;799;-64
2021/07/05 01:29:54;;;;;;;;;;;;;;;17.25;72.47;98975.09;5072108;28;902;-64
2021/07/05 01:32:21;;;;;;;;;;;;;;;17.18;73.21;98967.06;5071320;28;866;-63
2021/07/05 01:34:48;;;;;;;;;;;;;;;17.25;72.96;98970.28;5071924;28;889;-64
2021/07/05 01:37:14;;;;;;;;;;;;;;;17.20;73.18;98965.34;5072158;28;1909;-64
2021/07/05 01:39:41;;;;;;;;;;;;;;;17.17;73.45;98960.69;5072202;28;933;-64
2021/07/05 01:42:08;;;;;;;;;;;;;;;17.10;73.62;98958.22;5071983;28;818;-63
2021/07/05 01:44:34;;;;;;;;;;;;;;;16.98;73.95;98954.34;5071909;28;822;-63
2021/07/05 01:47:01;;;;;;;;;;;;;;;16.90;74.08;98955.94;5071826;28;869;-63
2021/07/05 01:49:27;;;;;;;;;;;;;;;16.85;74.26;98954.50;5071848;28;842;-63
2021/07/05 01:51:54;;;;;;;;;;;;;;;16.77;74.15;98956.06;5071732;28;912;-64
2021/07/05 01:54:21;;;;;;;;;;;;;;;16.62;74.51;98958.69;5071746;28;834;-64
2021/07/05 01:56:48;;;;;;;;;;;;;;;16.52;75.02;98966.28;5071726;28;850;-63
2021/07/05 01:59:15;;;;;;;;;;;;;;;16.55;75.40;98958.97;5071736;28;1889;-63
2021/07/05 02:01:42;;;;;;;;;;;;;;;16.62;75.69;98967.06;5053648;28;1180;-63
2021/07/05 02:04:08;;;;;;;;;;;;;;;16.76;75.43;98971.22;5071656;28;870;-63
2021/07/05 02:06:35;;;;;;;;;;;;;;;16.93;74.66;98975.28;5071589;28;806;-63
2021/07/05 02:09:05;;;;;;;;;;;;;;;17.13;74.04;98974.03;5071607;28;881;-63
2021/07/05 02:11:32;;;;;;;;;;;;;;;17.32;73.63;98969.19;5071567;28;1036;-63
2021/07/05 02:13:59;;;;;;;;;;;;;;;17.51;72.86;98965.09;5071993;28;906;-63
2021/07/05 02:16:26;;;;;;;;;;;;;;;17.63;72.51;98968.19;5071499;28;822;-63
2021/07/05 02:18:52;;;;;;;;;;;;;;;17.69;72.18;98967.06;5071526;28;1939;-63
2021/07/05 02:21:19;;;;;;;;;;;;;;;17.71;72.21;98964.56;5071176;28;1368;-63
2021/07/05 02:23:45;;;;;;;;;;;;;;;17.75;72.03;98964.38;5071437;28;874;-63
2021/07/05 02:26:12;;;;;;;;;;;;;;;17.76;71.91;98971.53;5071472;28;826;-63
2021/07/05 02:28:38;;;;;;;;;;;;;;;17.76;72.00;98971.53;5071277;28;854;-63
2021/07/05 02:31:06;;;;;;;;;;;;;;;17.70;72.01;98971.41;5071443;28;897;-63
2021/07/05 02:33:34;;;;;;;;;;;;;;;17.68;72.25;98962.72;5071345;28;850;-63
2021/07/05 02:36:02;;;;;;;;;;;;;;;17.71;72.18;98964.56;5071389;28;802;-63
2021/07/05 02:38:29;;;;;;;;;;;;;;;17.73;72.15;98964.09;5071281;28;1914;-63
2021/07/05 02:40:56;;;;;;;;;;;;;;;17.72;72.20;98965.34;5071243;28;803;-63
2021/07/05 02:43:23;;;;;;;;;;;;;;;17.73;72.21;98961.28;5074081;28;880;-63
2021/07/05 02:45:51;;;;;;;;;;;;;;;17.72;72.23;98966.13;5057297;28;1317;-63
2021/07/05 02:48:19;;;;;;;;;;;;;;;17.74;72.67;98960.81;5075202;28;874;-63
2021/07/05 02:50:47;;;;;;;;;;;;;;;17.79;72.85;98961.44;5075189;28;807;-63
2021/07/05 02:53:13;;;;;;;;;;;;;;;17.89;72.61;98962.97;5075168;28;826;-63
2021/07/05 02:55:40;;;;;;;;;;;;;;;18.00;72.28;98963.22;5057078;28;937;-63
2021/07/05 02:58:07;;;;;;;;;;;;;;;18.16;71.76;98962.81;5075028;28;1973;-63
2021/07/05 03:00:38;;;;;;;;;;;;;;;18.32;71.25;98961.63;5075015;28;845;-63
2021/07/05 03:03:05;;;;;;;;;;;;;;;18.46;71.01;98964.97;5074962;28;901;-63
2021/07/05 03:05:32;;;;;;;;;;;;;;;18.62;70.54;98964.53;5074797;28;873;-63
2021/07/05 03:07:59;;;;;;;;;;;;;;;18.84;69.89;98964.25;5056901;28;1175;-63
2021/07/05 03:10:27;;;;;;;;;;;;;;;19.02;69.42;98965.34;5074778;28;823;-63
2021/07/05 03:12:55;;;;;;;;;;;;;;;19.10;69.11;98964.47;5074845;28;983;-62
2021/07/05 03:15:22;;;;;;;;;;;;;;;19.12;68.75;98961.97;5074708;28;814;-63
2021/07/05 03:17:48;;;;;;;;;;;;;;;18.94;69.07;98960.09;5074688;28;1897;-63
2021/07/05 03:20:18;;;;;;;;;;;;;;;18.77;69.49;98961.78;5074136;28;1360;-62
2021/07/05 03:22:46;;;;;;;;;;;;;;;18.72;69.71;98973.66;5074594;28;865;-62
2021/07/05 03:25:13;;;;;;;;;;;;;;;18.81;69.65;98964.44;5074501;28;882;-62
2021/07/05 03:27:40;;;;;;;;;;;;;;;18.97;69.37;98958.38;5074446;28;877;-62
2021/07/05 03:30:08;;;;;;;;;;;;;;;19.24;69.04;98962.16;5074420;28;905;-63
2021/07/05 03:32:35;;;;;;;;;;;;;;;19.54;68.69;98958.09;5056456;28;1634;-63
2021/07/05 03:35:03;;;;;;;;;;;;;;;19.87;68.11;98970.34;5074310;28;911;-63
2021/07/05 03:37:30;;;;;;;;;;;;;;;20.16;67.02;98959.06;5074222;28;2031;-63
2021/07/05 03:39:57;;;;;;;;;;;;;;;20.51;66.19;98954.66;5074311;28;979;-63
2021/07/05 03:42:23;;;;;;;;;;;;;;;20.77;64.59;98954.72;5074208;28;882;-63
2021/07/05 03:44:49;;;;;;;;;;;;;;;20.78;64.02;98948.63;5074159;28;838;-63
2021/07/05 03:47:16;;;;;;;;;;;;;;;20.90;63.60;98954.38;5074143;28;909;-63
2021/07/05 03:49:42;;;;;;;;;;;;;;;21.02;63.57;98947.59;5056055;28;1187;-64
2021/07/05 03:52:10;;;;;;;;;;;;;;;21.21;63.71;98953.66;5074032;28;846;-64
2021/07/05 03:54:37;;;;;;;;;;;;;;;21.19;62.78;98950.56;5073155;28;857;-63
2021/07/05 03:57:04;;;;;;;;;;;;;;;21.11;63.90;98955.84;5073828;28;1947;-64
2021/07/05 03:59:32;;;;;;;;;;;;;;;21.04;64.08;98958.31;5073936;28;803;-64
2021/07/05 04:01:58;;;;;;;;;;;;;;;20.82;64.43;98954.00;5055920;28;1480;-63
2021/07/05 04:04:24;;;;;;;;;;;;;;;20.49;65.16;98960.00;5074071;28;834;-63
2021/07/05 04:06:52;;;;;;;;;;;;;;;20.18;65.89;98959.34;5073730;28;890;-63
2021/07/05 04:09:21;;;;;;;;;;;;;;;19.83;66.63;98959.34;5073729;28;810;-63
2021/07/05 04:11:48;;;;;;;;;;;;;;;19.53;67.52;98964.94;5073634;28;893;-63
2021/07/05 04:14:14;;;;;;;;;;;;;;;19.29;68.22;98969.91;5074116;28;925;-63
2021/07/05 04:16:41;;;;;;;;;;;;;;;19.10;68.68;98967.28;5073541;28;827;-64
2021/07/05 04:19:07;;;;;;;;;;;;;;;18.99;69.23;98967.06;5073710;28;1881;-63
2021/07/05 04:21:34;;;;;;;;;;;;;;;18.89;69.56;98974.00;5073231;28;1284;-64
2021/07/05 04:24:00;;;;;;;;;;;;;;;18.88;69.90;98962.03;5055508;28;1198;-63
2021/07/05 04:26:27;;;;;;;;;;;;;;;19.46;68.86;98965.34;5073379;28;850;-63
2021/07/05 04:28:54;;;;;;;;;;;;;;;20.34;67.04;98963.63;5073273;28;890;-63
2021/07/05 04:31:21;;;;;;;;;;;;;;;21.32;64.36;98961.44;5073320;28;795;-63
2021/07/05 04:33:48;;;;;;;;;;;;;;;22.22;62.30;98962.09;5073212;28;827;-63
2021/07/05 04:36:15;;;;;;;;;;;;;;;22.88;60.56;98962.16;5073108;28;844;-64
2021/07/05 04:38:41;;;;;;;;;;;;;;;23.61;58.88;98965.84;5073102;28;1977;-64
2021/07/05 04:41:08;;;;;;;;;;;;;;;24.34;56.58;98964.22;5073083;28;858;-65
2021/07/05 04:43:34;;;;;;;;;;;;;;;24.69;55.43;98963.63;5073007;28;832;-66
2021/07/05 04:46:04;;;;;;;;;;;;;;;24.35;56.55;98963.72;5055201;28;1388;-65
2021/07/05 04:48:32;;;;;;;;;;;;;;;23.63;58.05;98963.28;5072834;28;847;-65
2021/07/05 04:50:59;;;;;;;;;;;;;;;22.77;60.54;98958.03;5072912;28;823;-66
2021/07/05 04:53:26;;;;;;;;;;;;;;;22.18;62.24;98953.13;5071590;28;1409;-65
2021/07/05 04:55:53;;;;;;;;;;;;;;;21.98;62.81;98954.03;5054917;28;1413;-65
2021/07/05 04:58:21;;;;;;;;;;;;;;;21.70;63.62;98956.63;5072706;28;1958;-65
2021/07/05 05:00:48;;;;;;;;;;;;;;;21.67;64.03;98954.84;5072686;28;815;-66
2021/07/05 05:03:14;;;;;;;;;;;;;;;22.01;63.16;98958.66;5072557;28;838;-65
2021/07/05 05:05:41;;;;;;;;;;;;;;;22.80;61.79;98953.41;5072520;28;819;-64
2021/07/05 05:13:19;;;;;;;;;;;;;;;25.51;55.41;98944.34;5715917;22;1630;-65
2021/07/05 05:15:45;;;;;;;;;;;;;;;26.85;53.38;98942.16;5092807;28;915;-64
2021/07/05 05:18:12;;;;;;;;;;;;;;;28.05;49.79;98944.66;5092992;28;1918;-65
2021/07/05 05:20:38;;;;;;;;;;;;;;;28.71;47.32;98941.81;5092537;28;873;-64
2021/07/05 05:23:05;;;;;;;;;;;;;;;29.45;45.60;98946.63;5092720;28;805;-64
2021/07/05 05:25:31;;;;;;;;;;;;;;;30.17;43.95;98942.47;5092603;28;880;-63
2021/07/05 05:27:58;;;;;;;;;;;;;;;30.87;42.55;98935.78;5092775;28;903;-64
2021/07/05 05:30:25;;;;;;;;;;;;;;;31.50;41.20;98941.09;5091402;28;1452;-64
2021/07/05 05:32:53;;;;;;;;;;;;;;;31.93;40.61;98932.91;5092572;28;837;-64
2021/07/05 05:35:20;;;;;;;;;;;;;;;32.48;39.21;98928.63;5092419;28;849;-64
2021/07/05 05:37:48;;;;;;;;;;;;;;;32.93;38.21;98930.53;5092249;28;1952;-63
2021/07/05 05:40:15;;;;;;;;;;;;;;;33.14;37.01;98930.25;5092545;28;892;-63
2021/07/05 05:42:42;;;;;;;;;;;;;;;33.11;36.86;98931.41;5092139;28;856;-63
2021/07/05 05:45:09;;;;;;;;;;;;;;;33.56;36.47;98926.72;5092607;28;876;-63
2021/07/05 05:47:35;;;;;;;;;;;;;;;34.16;35.73;98923.16;5092188;28;980;-63
2021/07/05 05:50:03;;;;;;;;;;;;;;;34.53;35.15;98926.94;5092148;28;852;-63
2021/07/05 05:52:29;;;;;;;;;;;;;;;34.93;34.66;98916.50;5092063;28;825;-62
2021/07/05 05:54:56;;;;;;;;;;;;;;;35.36;33.91;98920.69;5092346;28;829;-63
2021/07/05 05:57:26;;;;;;;;;;;;;;;35.72;33.48;98929.88;5073907;28;1897;-63
2021/07/05 05:59:54;;;;;;;;;;;;;;;35.76;32.37;98933.09;5107691;28;1154;-63
2021/07/05 06:02:20;;;;;;;;;;;;;;;35.49;31.68;98931.00;5107608;28;837;-63
2021/07/05 06:04:47;;;;;;;;;;;;;;;35.11;31.79;98925.81;5091870;28;893;-62
2021/07/05 06:07:13;;;;;;;;;;;;;;;34.82;32.79;98937.13;5091981;28;833;-62
2021/07/05 06:09:40;;;;;;;;;;;;;;;35.00;32.86;98932.13;5091878;28;852;-63
2021/07/05 06:12:07;;;;;;;;;;;;;;;35.49;31.80;98930.25;5091701;28;948;-63
2021/07/05 06:14:34;;;;;;;;;;;;;;;35.23;31.74;98934.66;5091710;28;1238;-62
2021/07/05 06:17:00;;;;;;;;;;;;;;;34.88;31.87;98944.13;5091294;28;832;-62
2021/07/05 06:19:26;;;;;;;;;;;;;;;34.42;31.21;98946.75;5091678;28;1961;-61
2021/07/05 06:21:53;;;;;;;;;;;;;;;33.89;30.74;98937.34;5091808;28;809;-62
2021/07/05 06:24:19;;;;;;;;;;;;;;;34.00;31.30;98936.84;5091795;28;817;-62
2021/07/05 06:26:47;;;;;;;;;;;;;;;33.89;30.39;98943.09;5091732;28;880;-62
2021/07/05 06:29:14;;;;;;;;;;;;;;;33.65;30.74;98933.94;5091826;28;833;-62
2021/07/05 06:31:41;;;;;;;;;;;;;;;33.64;30.32;98931.66;5091900;28;879;-63
2021/07/05 06:34:08;;;;;;;;;;;;;;;34.14;30.60;98932.34;5091491;28;1002;-62
2021/07/05 06:36:35;;;;;;;;;;;;;;;34.87;30.57;98931.13;5107766;28;1452;-61
2021/07/05 06:39:02;;;;;;;;;;;;;;;35.15;29.35;98931.94;5091448;28;1881;-63
2021/07/05 06:41:28;;;;;;;;;;;;;;;34.94;28.84;98929.50;5091473;28;921;-62
2021/07/05 06:43:55;;;;;;;;;;;;;;;34.40;29.96;98935.13;5091730;28;849;-61
2021/07/05 06:46:21;;;;;;;;;;;;;;;34.28;29.51;98929.91;5091678;28;901;-62
2021/07/05 06:48:49;;;;;;;;;;;;;;;34.76;30.22;98926.69;5091710;28;857;-63
2021/07/05 06:51:16;;;;;;;;;;;;;;;35.24;29.22;98925.47;5091710;28;802;-63
2021/07/05 06:53:42;;;;;;;;;;;;;;;34.98;30.23;98924.84;5091755;28;817;-63
2021/07/05 06:56:09;;;;;;;;;;;;;;;35.01;29.74;98933.63;5091630;28;894;-62
2021/07/05 06:58:36;;;;;;;;;;;;;;;34.69;29.75;98929.63;5091671;28;1947;-63
2021/07/05 07:01:08;;;;;;;;;;;;;;;34.90;29.97;98926.31;5091816;28;798;-61
2021/07/05 07:03:34;;;;;;;;;;;;;;;34.52;30.05;98931.16;5091369;28;868;-62
2021/07/05 07:06:01;;;;;;;;;;;;;;;34.17;30.21;98925.44;5091361;28;829;-62
2021/07/05 07:08:28;;;;;;;;;;;;;;;33.70;30.90;98924.31;5091402;28;856;-62
2021/07/05 07:10:54;;;;;;;;;;;;;;;33.77;31.37;98919.88;5089813;28;1265;-62
2021/07/05 07:13:21;;;;;;;;;;;;;;;34.07;30.86;98929.53;5091300;28;1215;-62
2021/07/05 07:15:53;;;;;;;;;;;;;;;33.66;31.36;98920.34;5091520;28;801;-62
2021/07/05 07:21:23;;;;;;;;;;;;;;;34.33;30.60;98923.16;5091411;28;713;-63
2021/07/05 07:23:51;;;;;;;;;;;;;;;34.05;30.50;98924.38;5091081;28;1283;-62
2021/07/05 07:26:17;;;;;;;;;;;;;;;34.13;31.51;98925.09;5091136;28;1198;-63
2021/07/05 07:28:44;;;;;;;;;;;;;;;34.80;30.49;98922.63;5091180;28;789;-63
2021/07/05 07:31:11;;;;;;;;;;;;;;;35.05;30.16;98925.34;5094714;28;825;-63
2021/07/05 07:33:37;;;;;;;;;;;;;;;35.35;29.24;98921.28;5094760;28;1056;-62
2021/07/05 07:36:04;;;;;;;;;;;;;;;35.21;30.31;98923.78;5094948;28;896;-62
2021/07/05 07:38:36;;;;;;;;;;;;;;;34.73;30.03;98925.00;5094853;28;1951;-62
2021/07/05 07:41:03;;;;;;;;;;;;;;;35.22;30.40;98924.56;5094702;28;875;-63
2021/07/05 07:43:29;;;;;;;;;;;;;;;35.32;29.38;98920.38;5094776;28;813;-63
2021/07/05 07:45:56;;;;;;;;;;;;;;;35.03;30.67;98920.19;5094527;28;873;-62
2021/07/05 07:48:23;;;;;;;;;;;;;;;34.70;30.79;98923.31;5094444;28;793;-63
2021/07/05 07:50:49;;;;;;;;;;;;;;;34.95;29.70;98919.53;5094387;28;1087;-63
2021/07/05 07:53:15;;;;;;;;;;;;;;;35.30;30.16;98910.84;5094418;28;821;-63
2021/07/05 07:55:42;;;;;;;;;;;;;;;35.53;30.18;98914.09;5094303;28;848;-63
2021/07/05 07:58:08;;;;;;;;;;;;;;;35.83;29.15;98912.09;5094248;28;1901;-63
2021/07/05 08:00:35;;;;;;;;;;;;;;;36.01;30.21;98915.59;5094277;28;820;-63
2021/07/05 08:03:01;;;;;;;;;;;;;;;35.81;30.00;98914.81;5109865;28;2184;-63
2021/07/05 08:05:28;;;;;;;;;;;;;;;35.93;29.94;98918.63;5094271;28;837;-62
2021/07/05 08:07:57;;;;;;;;;;;;;;;35.82;30.55;98916.31;5094328;28;837;-63
2021/07/05 08:10:26;;;;;;;;;;;;;;;35.34;30.20;98911.16;5093870;28;809;-63
2021/07/05 08:12:53;;;;;;;;;;;;;;;35.52;30.19;98909.69;5094007;28;1443;-64
2021/07/05 08:15:18;;;;;;;;;;;;;;;35.28;30.74;98913.53;5093774;28;1207;-63
2021/07/05 08:17:45;;;;;;;;;;;;;;;35.62;29.48;98912.59;5093853;28;1914;-62
2021/07/05 08:20:13;;;;;;;;;;;;;;;35.68;28.87;98916.00;5093857;28;856;-63
2021/07/05 08:22:40;;;;;;;;;;;;;;;35.29;29.70;98910.09;5093841;28;829;-63
2021/07/05 08:25:07;;;;;;;;;;;;;;;35.48;30.36;98909.38;5093822;28;915;-63
2021/07/05 08:27:34;;;;;;;;;;;;;;;36.32;29.59;98915.78;5093719;28;809;-63
2021/07/05 08:30:01;;;;;;;;;;;;;;;36.29;29.07;98922.00;5093731;28;853;-63
2021/07/05 08:32:28;;;;;;;;;;;;;;;35.87;29.64;98915.28;5092362;28;1373;-64
2021/07/05 08:34:54;;;;;;;;;;;;;;;36.30;29.25;98917.78;5093529;28;888;-64
2021/07/05 08:37:21;;;;;;;;;;;;;;;36.33;30.09;98925.94;5093686;28;2037;-63
2021/07/05 08:39:47;;;;;;;;;;;;;;;35.79;30.20;98923.28;5093152;28;821;-62
2021/07/05 08:42:15;;;;;;;;;;;;;;;35.31;30.64;98930.31;5093331;28;943;-62
2021/07/05 08:44:43;;;;;;;;;;;;;;;35.09;30.14;98923.53;5093405;28;829;-62
2021/07/05 08:47:10;;;;;;;;;;;;;;;34.83;30.74;98927.19;5093327;28;868;-63
2021/07/05 08:49:36;;;;;;;;;;;;;;;34.92;31.05;98920.72;5093299;28;833;-63
2021/07/05 08:52:03;;;;;;;;;;;;;;;35.15;30.98;98926.19;5093269;28;911;-63
2021/07/05 08:54:29;;;;;;;;;;;;;;;35.53;29.94;98922.72;5093191;28;848;-63
2021/07/05 08:56:56;;;;;;;;;;;;;;;35.92;29.18;98919.22;5093179;28;892;-62
2021/07/05 08:59:22;;;;;;;;;;;;;;;36.06;29.97;98908.81;5093155;28;1953;-63
2021/07/05 09:01:49;;;;;;;;;;;;;;;35.87;29.12;98908.75;5093216;28;1045;-63
2021/07/05 09:04:17;;;;;;;;;;;;;;;35.33;30.19;98912.50;5093142;28;876;-64
2021/07/05 09:07:03;;;;;;;;;;;;;;;35.84;30.68;98904.22;5093081;28;804;-64
2021/07/05 09:09:31;;;;;;;;;;;;;;;35.95;30.10;98900.75;5093551;28;825;-63
2021/07/05 09:12:05;;;;;;;;;;;;;;;36.31;29.51;98908.50;5093035;28;1004;-64
2021/07/05 09:14:33;;;;;;;;;;;;;;;36.43;28.97;98900.03;5092812;28;1431;-63
2021/07/05 09:17:06;;;;;;;;;;;;;;;35.91;29.45;98898.34;5092719;28;871;-63
2021/07/05 09:19:32;;;;;;;;;;;;;;;35.40;30.10;98902.25;5092904;28;1994;-63
2021/07/05 09:22:03;;;;;;;;;;;;;;;33.92;31.21;98905.38;5092679;28;817;-62
2021/07/05 09:24:34;;;;;;;;;;;;;;;33.51;32.64;98904.78;5092686;28;809;-63
2021/07/05 09:27:05;;;;;;;;;;;;;;;33.54;32.86;98897.91;5092768;28;888;-63
2021/07/05 09:29:34;;;;;;;;;;;;;;;33.41;32.82;98895.31;5092541;28;863;-63
2021/07/05 09:32:03;;;;;;;;;;;;;;;33.11;33.27;98891.31;5092706;28;856;-63
2021/07/05 09:34:31;;;;;;;;;;;;;;;33.35;32.28;98892.69;5092700;28;899;-63
2021/07/05 09:37:20;;;;;;;;;;;;;;;33.68;33.10;98891.88;5092401;28;825;-63
2021/07/05 09:40:07;;;;;;;;;;;;;;;34.23;32.79;98887.91;5092279;28;903;-64
2021/07/05 09:42:34;;;;;;;;;;;;;;;34.22;31.86;98880.66;5092349;28;977;-64
2021/07/05 09:45:03;;;;;;;;;;;;;;;33.46;33.35;98882.88;5092325;28;864;-63
2021/07/05 09:47:31;;;;;;;;;;;;;;;33.46;34.51;98879.25;5092190;28;845;-64
2021/07/05 09:50:06;;;;;;;;;;;;;;;33.46;33.88;98882.13;5092154;28;880;-63
2021/07/05 09:52:32;;;;;;;;;;;;;;;33.53;34.30;98875.56;5091975;28;765;-64
2021/07/05 09:55:00;;;;;;;;;;;;;;;34.00;34.71;98881.66;5092863;28;778;-64
2021/07/05 09:57:43;;;;;;;;;;;;;;;34.11;33.81;98873.28;5092180;28;1889;-64
2021/07/05 10:00:09;;;;;;;;;;;;;;;33.66;33.83;98886.72;5092027;28;793;-63
2021/07/05 10:02:37;;;;;;;;;;;;;;;32.84;34.77;98887.47;5092124;28;861;-64
2021/07/05 10:05:09;;;;;;;;;;;;;;;33.07;35.91;98881.63;5091912;28;837;-65
2021/07/05 10:07:36;;;;;;;;;;;;;;;32.73;34.74;98880.88;5092157;28;825;-63
2021/07/05 10:10:10;;;;;;;;;;;;;;;31.86;35.67;98874.44;5092738;28;779;-64
2021/07/05 10:12:36;;;;;;;;;;;;;;;32.56;35.29;98880.75;5091984;28;1017;-65
2021/07/05 10:15:10;;;;;;;;;;;;;;;33.68;34.11;98880.44;5091702;28;1434;-64
2021/07/05 10:17:41;;;;;;;;;;;;;;;33.78;34.38;98884.16;5091718;28;1914;-63
2021/07/05 10:20:11;;;;;;;;;;;;;;;33.84;33.80;98875.28;5091878;28;851;-63
2021/07/05 10:22:39;;;;;;;;;;;;;;;32.63;33.50;98874.25;5107482;28;1430;-63
2021/07/05 10:25:05;;;;;;;;;;;;;;;31.73;36.90;98866.09;5092557;28;797;-64
2021/07/05 10:27:33;;;;;;;;;;;;;;;31.98;36.17;98866.25;5092335;28;837;-63
2021/07/05 10:30:01;;;;;;;;;;;;;;;32.25;35.17;98863.69;5092006;28;825;-64
2021/07/05 10:32:28;;;;;;;;;;;;;;;32.74;34.94;98864.47;5091724;28;894;-64
2021/07/05 10:34:55;;;;;;;;;;;;;;;33.14;33.55;98864.41;5091983;28;810;-63
2021/07/05 10:37:40;;;;;;;;;;;;;;;33.16;34.07;98863.84;5091701;28;1890;-64
2021/07/05 10:40:09;;;;;;;;;;;;;;;33.26;34.41;98863.94;5091545;28;825;-63
2021/07/05 10:42:43;;;;;;;;;;;;;;;32.86;34.80;98856.94;5091822;28;900;-63
2021/07/05 10:45:11;;;;;;;;;;;;;;;32.50;35.41;98860.94;5091429;28;900;-63
2021/07/05 10:47:42;;;;;;;;;;;;;;;31.99;35.81;98850.63;5091622;28;859;-65
2021/07/05 10:50:09;;;;;;;;;;;;;;;31.16;37.36;98852.94;5091547;28;872;-63
2021/07/05 10:52:49;;;;;;;;;;;;;;;30.39;38.89;98847.03;5091766;28;954;-64
2021/07/05 10:55:34;;;;;;;;;;;;;;;30.93;40.31;98858.59;5091435;28;912;-63
2021/07/05 10:58:01;;;;;;;;;;;;;;;31.33;37.65;98847.41;5091862;28;1882;-63
2021/07/05 11:00:47;;;;;;;;;;;;;;;30.94;38.79;98851.59;5091717;28;829;-63
2021/07/05 11:03:33;;;;;;;;;;;;;;;30.38;39.19;98853.28;5091991;28;1160;-64
2021/07/05 11:06:00;;;;;;;;;;;;;;;29.98;39.55;98856.47;5095390;28;891;-63
2021/07/05 11:08:39;;;;;;;;;;;;;;;30.02;39.43;98862.56;5095382;28;853;-64
2021/07/05 11:11:26;;;;;;;;;;;;;;;31.21;39.17;98851.22;5095361;28;869;-65
2021/07/05 11:14:11;;;;;;;;;;;;;;;32.28;37.56;98848.22;5094751;28;1272;-65
2021/07/05 11:16:52;;;;;;;;;;;;;;;32.96;36.50;98846.38;5095140;28;864;-64
2021/07/05 11:19:38;;;;;;;;;;;;;;;32.81;36.63;98842.88;5110564;28;1905;-65
2021/07/05 11:22:08;;;;;;;;;;;;;;;32.45;35.91;98835.41;5094975;28;857;-65
2021/07/05 11:24:50;;;;;;;;;;;;;;;31.93;36.77;98827.94;5095037;28;809;-64
2021/07/05 11:27:25;;;;;;;;;;;;;;;31.59;36.70;98828.41;5094851;28;849;-64
2021/07/05 11:29:52;;;;;;;;;;;;;;;32.17;36.76;98831.50;5095003;28;837;-63
2021/07/05 11:32:35;;;;;;;;;;;;;;;32.15;36.50;98834.19;5094887;28;986;-64
2021/07/05 11:35:02;;;;;;;;;;;;;;;31.99;37.19;98836.34;5094661;28;825;-65
2021/07/05 11:37:28;;;;;;;;;;;;;;;32.24;38.06;98844.25;5094710;28;1894;-63
2021/07/05 11:39:55;;;;;;;;;;;;;;;32.14;37.57;98847.72;5094612;28;876;-63
2021/07/05 11:42:31;;;;;;;;;;;;;;;31.44;38.22;98845.56;5094597;28;814;-64
2021/07/05 11:44:58;;;;;;;;;;;;;;;31.16;39.71;98847.22;5094541;28;864;-64
2021/07/05 11:47:41;;;;;;;;;;;;;;;31.55;40.91;98853.72;5094573;28;865;-64
2021/07/05 11:50:24;;;;;;;;;;;;;;;32.25;39.13;98851.50;5094431;28;826;-64
2021/07/05 11:52:52;;;;;;;;;;;;;;;32.38;38.02;98848.41;5094408;28;817;-64
2021/07/05 11:55:20;;;;;;;;;;;;;;;33.04;36.69;98843.47;5094344;28;857;-64
2021/07/05 11:57:51;;;;;;;;;;;;;;;32.98;35.58;98845.78;5094164;28;2007;-64
2021/07/05 12:00:18;;;;;;;;;;;;;;;32.60;36.98;98835.34;5094925;28;778;-64
2021/07/05 12:02:44;;;;;;;;;;;;;;;32.81;37.01;98840.75;5094508;28;896;-64
2021/07/05 12:05:14;;;;;;;;;;;;;;;33.04;35.68;98837.00;5094278;28;908;-63
2021/07/05 12:07:41;;;;;;;;;;;;;;;33.54;36.07;98840.63;5093884;28;893;-64
2021/07/05 12:10:12;;;;;;;;;;;;;;;34.01;35.89;98840.91;5094435;28;861;-64
2021/07/05 12:12:39;;;;;;;;;;;;;;;34.05;35.52;98831.91;5094096;28;1032;-65
2021/07/05 12:15:06;;;;;;;;;;;;;;;34.43;34.93;98824.97;5093044;28;1291;-64
2021/07/05 12:17:32;;;;;;;;;;;;;;;33.33;36.24;98828.78;5093901;28;1918;-64
2021/07/05 12:19:59;;;;;;;;;;;;;;;32.30;37.69;98824.78;5093893;28;888;-65
2021/07/05 12:22:26;;;;;;;;;;;;;;;32.66;37.99;98817.97;5093777;28;909;-63
2021/07/05 12:24:57;;;;;;;;;;;;;;;32.59;37.40;98827.38;5093878;28;876;-64
2021/07/05 12:27:28;;;;;;;;;;;;;;;32.00;38.18;98819.97;5093789;28;810;-65
2021/07/05 12:29:59;;;;;;;;;;;;;;;31.84;38.55;98827.78;5093677;28;864;-65
2021/07/05 12:32:32;;;;;;;;;;;;;;;31.96;38.53;98823.16;5093592;28;959;-64
2021/07/05 12:35:02;;;;;;;;;;;;;;;32.58;37.50;98823.72;5093551;28;797;-65
2021/07/05 12:37:43;;;;;;;;;;;;;;;33.66;36.71;98825.81;5093520;28;1952;-64
2021/07/05 12:40:12;;;;;;;;;;;;;;;34.54;34.42;98821.56;5092227;28;1353;-64
2021/07/05 12:42:43;;;;;;;;;;;;;;;34.92;33.89;98820.28;5094011;28;792;-65
2021/07/05 12:45:12;;;;;;;;;;;;;;;35.09;33.15;98817.31;5093453;28;884;-64
2021/07/05 12:47:59;;;;;;;;;;;;;;;35.26;32.03;98816.50;5093392;28;892;-65
2021/07/05 12:50:40;;;;;;;;;;;;;;;35.71;31.33;98822.81;5093541;28;817;-66
2021/07/05 12:53:06;;;;;;;;;;;;;;;35.72;31.45;98824.34;5093160;28;880;-65
2021/07/05 12:55:34;;;;;;;;;;;;;;;35.15;31.96;98826.44;5092092;28;1272;-63
2021/07/05 12:58:01;;;;;;;;;;;;;;;34.46;32.84;98827.41;5093087;28;2022;-66
2021/07/05 13:00:28;;;;;;;;;;;;;;;33.85;34.13;98828.13;5093095;28;813;-65
2021/07/05 13:03:07;;;;;;;;;;;;;;;33.44;34.77;98833.25;5093192;28;808;-65
2021/07/05 13:05:33;;;;;;;;;;;;;;;33.29;34.85;98834.91;5092945;28;816;-66
2021/07/05 13:08:00;;;;;;;;;;;;;;;32.95;36.22;98824.84;5093214;28;880;-66
2021/07/05 13:10:26;;;;;;;;;;;;;;;33.31;37.94;98828.59;5093266;28;817;-65
2021/07/05 13:12:54;;;;;;;;;;;;;;;34.53;37.16;98826.53;5093025;28;993;-66
2021/07/05 13:15:21;;;;;;;;;;;;;;;35.02;35.74;98823.94;5092673;28;1423;-65
2021/07/05 13:17:48;;;;;;;;;;;;;;;34.58;35.68;98824.75;5092717;28;1910;-66
2021/07/05 13:20:16;;;;;;;;;;;;;;;34.97;34.40;98819.22;5092763;28;805;-65